createdAt,value
2017-04-25T00:00:11.855Z,9.43
2017-04-25T00:01:11.845Z,9.47
2017-04-25T00:02:11.839Z,9.43
2017-04-25T00:03:11.829Z,9.5
2017-04-25T00:04:11.216Z,9.46
2017-04-25T00:05:11.814Z,9.42
2017-04-25T00:06:11.806Z,9.46
2017-04-25T00:07:11.798Z,9.33
2017-04-25T00:08:11.792Z,9.29
2017-04-25T00:09:11.783Z,9.33
2017-04-25T00:10:11.466Z,9.32
2017-04-25T00:11:11.463Z,9.21
2017-04-25T00:12:11.757Z,9.26
2017-04-25T00:13:11.748Z,9.14
2017-04-25T00:14:11.745Z,9.15
2017-04-25T00:15:11.727Z,9.28
2017-04-25T00:16:11.415Z,9.15
2017-04-25T00:17:11.712Z,9.24
2017-04-25T00:18:11.396Z,9.15
2017-04-25T00:19:11.692Z,9.13
2017-04-25T00:20:11.684Z,9.11
2017-04-25T00:21:11.677Z,9.18
2017-04-25T00:22:11.668Z,9.1
2017-04-25T00:23:11.661Z,9.02
2017-04-25T00:24:11.651Z,9.02
2017-04-25T00:25:11.641Z,9.02
2017-04-25T00:26:11.331Z,8.94
2017-04-25T00:27:11.874Z,9.04
2017-04-25T00:28:11.617Z,9.04
2017-04-25T00:29:11.605Z,8.98
2017-04-25T00:30:11.598Z,9.01
2017-04-25T00:31:11.588Z,8.87
2017-04-25T00:32:11.881Z,8.96
2017-04-25T00:33:11.573Z,8.96
2017-04-25T00:34:11.562Z,8.95
2017-04-25T00:35:11.555Z,8.91
2017-04-25T00:36:11.547Z,8.89
2017-04-25T00:37:11.836Z,8.95
2017-04-25T00:38:11.529Z,8.96
2017-04-25T00:39:11.520Z,8.91
2017-04-25T00:40:11.212Z,8.92
2017-04-25T00:41:11.503Z,8.96
2017-04-25T00:42:11.744Z,8.98
2017-04-25T00:43:11.182Z,9.01
2017-04-25T00:44:11.474Z,8.98
2017-04-25T00:45:11.468Z,9.05
2017-04-25T00:46:11.456Z,9.04
2017-04-25T00:47:11.750Z,9.1
2017-04-25T00:48:11.438Z,9.05
2017-04-25T00:49:11.435Z,9.01
2017-04-25T00:50:11.422Z,8.99
2017-04-25T00:51:11.414Z,9.05
2017-04-25T00:52:11.657Z,9.02
2017-04-25T00:53:11.397Z,9.04
2017-04-25T00:54:11.387Z,9.05
2017-04-25T00:55:11.381Z,9.14
2017-04-25T00:56:11.369Z,9.05
2017-04-25T00:57:11.612Z,9.08
2017-04-25T00:58:11.355Z,9.05
2017-04-25T00:59:11.343Z,9.1
2017-04-25T01:00:11.036Z,8.99
2017-04-25T01:01:11.325Z,9.1
2017-04-25T01:02:11.619Z,9.02
2017-04-25T01:03:11.002Z,8.96
2017-04-25T01:04:11.302Z,8.96
2017-04-25T01:05:11.288Z,8.99
2017-04-25T01:06:11.284Z,8.98
2017-04-25T01:07:11.522Z,8.98
2017-04-25T01:08:11.265Z,8.91
2017-04-25T01:09:11.256Z,8.98
2017-04-25T01:10:11.250Z,8.96
2017-04-25T01:11:11.239Z,8.99
2017-04-25T01:12:11.480Z,9.04
2017-04-25T01:13:11.222Z,8.99
2017-04-25T01:14:11.214Z,9.08
2017-04-25T01:15:10.900Z,9.15
2017-04-25T01:16:11.196Z,9.11
2017-04-25T01:17:11.435Z,9.01
2017-04-25T01:18:11.177Z,9.15
2017-04-25T01:19:11.173Z,9.18
2017-04-25T01:20:11.158Z,9.15
2017-04-25T01:21:11.153Z,9.23
2017-04-25T01:22:11.441Z,9.23
2017-04-25T01:23:11.139Z,9.15
2017-04-25T01:24:11.125Z,9.18
2017-04-25T01:25:11.118Z,9.26
2017-04-25T01:26:11.106Z,9.15
2017-04-25T01:27:11.400Z,9.21
2017-04-25T01:28:11.088Z,9.15
2017-04-25T01:29:11.079Z,9.21
2017-04-25T01:30:10.768Z,9.18
2017-04-25T01:31:11.062Z,9.21
2017-04-25T01:32:10.998Z,9.2
2017-04-25T01:33:11.043Z,9.15
2017-04-25T01:34:11.042Z,9.24
2017-04-25T01:35:11.025Z,9.21
2017-04-25T01:36:11.015Z,9.23
2017-04-25T01:37:11.308Z,9.21
2017-04-25T01:38:10.999Z,9.26
2017-04-25T01:39:10.991Z,9.29
2017-04-25T01:40:10.982Z,9.32
2017-04-25T01:41:10.973Z,9.28
2017-04-25T01:42:11.266Z,9.23
2017-04-25T01:43:10.956Z,9.32
2017-04-25T01:44:10.947Z,9.23
2017-04-25T01:45:10.945Z,9.28
2017-04-25T01:46:10.929Z,9.26
2017-04-25T01:47:11.219Z,9.24
2017-04-25T01:48:10.608Z,9.31
2017-04-25T01:49:10.906Z,9.31
2017-04-25T01:50:10.894Z,9.32
2017-04-25T01:51:10.885Z,9.39
2017-04-25T01:52:11.177Z,9.38
2017-04-25T01:53:10.867Z,9.36
2017-04-25T01:54:10.857Z,9.38
2017-04-25T01:55:10.549Z,9.31
2017-04-25T01:56:10.845Z,9.32
2017-04-25T01:57:11.144Z,9.38
2017-04-25T01:58:10.522Z,9.42
2017-04-25T01:59:10.819Z,9.36
2017-04-25T02:00:10.808Z,9.31
2017-04-25T02:01:10.801Z,9.39
2017-04-25T02:02:11.040Z,9.33
2017-04-25T02:03:10.781Z,9.23
2017-04-25T02:04:10.779Z,9.28
2017-04-25T02:05:10.766Z,9.18
2017-04-25T02:06:10.453Z,9.15
2017-04-25T02:07:11.001Z,9.17
2017-04-25T02:08:10.740Z,9.18
2017-04-25T02:09:10.425Z,9.14
2017-04-25T02:10:10.115Z,9.15
2017-04-25T02:11:10.715Z,9.13
2017-04-25T02:12:10.952Z,9.21
2017-04-25T02:13:10.698Z,9.11
2017-04-25T02:14:10.684Z,9.18
2017-04-25T02:15:10.677Z,9.13
2017-04-25T02:16:10.059Z,9.1
2017-04-25T02:17:10.960Z,9.04
2017-04-25T02:18:10.655Z,9.05
2017-04-25T02:19:10.642Z,9.01
2017-04-25T02:20:10.634Z,9.1
2017-04-25T02:21:10.623Z,9.1
2017-04-25T02:22:10.917Z,9.1
2017-04-25T02:23:10.303Z,8.99
2017-04-25T02:24:10.604Z,9.01
2017-04-25T02:25:10.587Z,9.1
2017-04-25T02:26:10.277Z,9.11
2017-04-25T02:27:10.921Z,8.99
2017-04-25T02:28:10.261Z,9.04
2017-04-25T02:29:10.589Z,8.99
2017-04-25T02:30:10.239Z,8.96
2017-04-25T02:31:10.233Z,9.01
2017-04-25T02:32:10.473Z,8.99
2017-04-25T02:33:10.517Z,8.98
2017-04-25T02:34:10.511Z,9.02
2017-04-25T02:35:10.501Z,8.95
2017-04-25T02:36:10.493Z,8.99
2017-04-25T02:37:10.734Z,8.96
2017-04-25T02:38:10.476Z,8.96
2017-04-25T02:39:10.467Z,8.94
2017-04-25T02:40:10.455Z,8.99
2017-04-25T02:41:10.447Z,8.99
2017-04-25T02:42:10.434Z,9.01
2017-04-25T02:43:10.124Z,8.98
2017-04-25T02:44:10.426Z,9.04
2017-04-25T02:45:10.107Z,8.96
2017-04-25T02:46:10.401Z,8.98
2017-04-25T02:47:10.644Z,8.99
2017-04-25T02:48:10.386Z,9.08
2017-04-25T02:49:10.393Z,9.05
2017-04-25T02:50:10.063Z,9.11
2017-04-25T02:51:10.357Z,9.13
2017-04-25T02:52:10.045Z,9.11
2017-04-25T02:53:10.037Z,9.17
2017-04-25T02:54:10.332Z,9.14
2017-04-25T02:55:10.025Z,9.1
2017-04-25T02:56:10.008Z,9.14
2017-04-25T02:57:10.002Z,9.21
2017-04-25T02:58:09.994Z,9.21
2017-04-25T02:59:10.286Z,9.18
2017-04-25T03:00:09.974Z,9.2
2017-04-25T03:01:10.269Z,9.13
2017-04-25T03:02:10.266Z,9.15
2017-04-25T03:03:09.948Z,9.18
2017-04-25T03:04:10.243Z,9.18
2017-04-25T03:05:10.240Z,9.29
2017-04-25T03:06:10.223Z,9.21
2017-04-25T03:07:10.216Z,9.24
2017-04-25T03:08:09.900Z,9.18
2017-04-25T03:09:10.226Z,9.26
2017-04-25T03:10:09.885Z,9.33
2017-04-25T03:11:10.180Z,9.23
2017-04-25T03:12:10.172Z,9.18
2017-04-25T03:13:10.162Z,9.23
2017-04-25T03:14:10.153Z,9.15
2017-04-25T03:15:10.144Z,9.18
2017-04-25T03:16:10.135Z,9.11
2017-04-25T03:17:10.127Z,9.13
2017-04-25T03:18:10.127Z,9.11
2017-04-25T03:19:10.108Z,9.18
2017-04-25T03:20:09.798Z,9.13
2017-04-25T03:21:10.096Z,9.02
2017-04-25T03:22:09.779Z,9.05
2017-04-25T03:23:10.073Z,8.98
2017-04-25T03:24:10.074Z,9.04
2017-04-25T03:25:09.753Z,8.98
2017-04-25T03:26:10.056Z,8.99
2017-04-25T03:27:10.038Z,8.96
2017-04-25T03:28:10.034Z,8.96
2017-04-25T03:29:10.018Z,8.86
2017-04-25T03:30:10.010Z,8.91
2017-04-25T03:31:09.723Z,8.89
2017-04-25T03:32:09.994Z,8.89
2017-04-25T03:33:09.984Z,8.95
2017-04-25T03:34:09.975Z,8.95
2017-04-25T03:35:09.967Z,8.92
2017-04-25T03:36:09.958Z,8.98
2017-04-25T03:37:09.955Z,8.94
2017-04-25T03:38:09.635Z,8.92
2017-04-25T03:39:09.943Z,8.89
2017-04-25T03:40:09.630Z,8.87
2017-04-25T03:41:09.914Z,8.89
2017-04-25T03:42:09.916Z,8.87
2017-04-25T03:43:09.897Z,8.86
2017-04-25T03:44:09.887Z,8.91
2017-04-25T03:45:09.878Z,8.84
2017-04-25T03:46:09.867Z,8.91
2017-04-25T03:47:09.879Z,8.83
2017-04-25T03:48:09.849Z,8.79
2017-04-25T03:49:09.851Z,8.77
2017-04-25T03:50:09.529Z,8.71
2017-04-25T03:51:09.823Z,8.7
2017-04-25T03:52:09.818Z,8.68
2017-04-25T03:53:09.809Z,8.65
2017-04-25T03:54:09.495Z,8.76
2017-04-25T03:55:09.788Z,8.68
2017-04-25T03:56:09.778Z,8.65
2017-04-25T03:57:09.773Z,8.59
2017-04-25T03:58:09.461Z,8.48
2017-04-25T03:59:09.753Z,8.53
2017-04-25T04:00:09.742Z,8.5
2017-04-25T04:01:09.430Z,8.47
2017-04-25T04:02:09.722Z,8.41
2017-04-25T04:03:09.716Z,8.47
2017-04-25T04:04:09.404Z,8.37
2017-04-25T04:05:09.697Z,8.47
2017-04-25T04:06:09.690Z,8.52
2017-04-25T04:07:09.378Z,8.48
2017-04-25T04:08:09.921Z,8.47
2017-04-25T04:09:09.661Z,8.48
2017-04-25T04:10:09.656Z,8.45
2017-04-25T04:11:09.642Z,8.37
2017-04-25T04:12:09.631Z,8.52
2017-04-25T04:13:09.972Z,8.38
2017-04-25T04:14:09.314Z,8.41
2017-04-25T04:15:09.606Z,8.52
2017-04-25T04:16:09.593Z,8.44
2017-04-25T04:17:09.586Z,8.45
2017-04-25T04:18:09.831Z,8.37
2017-04-25T04:19:09.574Z,8.4
2017-04-25T04:20:09.561Z,8.41
2017-04-25T04:21:09.548Z,8.4
2017-04-25T04:22:09.542Z,8.41
2017-04-25T04:23:09.783Z,8.36
2017-04-25T04:24:09.524Z,8.44
2017-04-25T04:25:09.514Z,8.52
2017-04-25T04:26:09.511Z,8.47
2017-04-25T04:27:09.497Z,8.43
2017-04-25T04:28:09.737Z,8.47
2017-04-25T04:29:09.475Z,8.5
2017-04-25T04:30:09.467Z,8.5
2017-04-25T04:31:09.457Z,8.63
2017-04-25T04:32:09.449Z,8.68
2017-04-25T04:33:09.738Z,8.66
2017-04-25T04:34:08.827Z,8.76
2017-04-25T04:35:09.420Z,8.71
2017-04-25T04:36:09.416Z,8.77
2017-04-25T04:37:09.405Z,8.87
2017-04-25T04:38:09.645Z,8.89
2017-04-25T04:39:09.389Z,8.96
2017-04-25T04:40:09.073Z,9.1
2017-04-25T04:41:09.372Z,9.18
2017-04-25T04:42:09.366Z,9.32
2017-04-25T04:43:09.603Z,9.42
2017-04-25T04:44:09.042Z,9.5
2017-04-25T04:45:09.334Z,9.61
2017-04-25T04:46:09.324Z,9.66
2017-04-25T04:47:09.316Z,9.9
2017-04-25T04:48:09.621Z,10.11
2017-04-25T04:49:08.998Z,10.32
2017-04-25T04:50:09.294Z,10.45
2017-04-25T04:51:09.285Z,10.67
2017-04-25T04:52:09.278Z,10.85
2017-04-25T04:53:09.571Z,11.03
2017-04-25T04:54:09.264Z,11.43
2017-04-25T04:55:09.255Z,11.55
2017-04-25T04:56:09.246Z,11.78
2017-04-25T04:57:09.241Z,12.04
2017-04-25T04:58:09.486Z,12.19
2017-04-25T04:59:09.230Z,12.38
2017-04-25T05:00:09.221Z,12.56
2017-04-25T05:01:09.215Z,12.72
2017-04-25T05:02:09.208Z,12.82
2017-04-25T05:03:09.503Z,13.01
2017-04-25T05:04:08.891Z,13.1
2017-04-25T05:05:09.190Z,13.15
2017-04-25T05:06:09.186Z,13.28
2017-04-25T05:07:09.182Z,13.39
2017-04-25T05:08:09.428Z,13.38
2017-04-25T05:09:09.169Z,13.42
2017-04-25T05:10:09.165Z,13.45
2017-04-25T05:11:09.157Z,13.39
2017-04-25T05:12:09.153Z,13.46
2017-04-25T05:13:09.403Z,13.55
2017-04-25T05:14:09.145Z,13.42
2017-04-25T05:15:09.137Z,13.41
2017-04-25T05:16:09.135Z,13.41
2017-04-25T05:17:09.130Z,13.48
2017-04-25T05:18:08.819Z,13.45
2017-04-25T05:19:09.113Z,13.33
2017-04-25T05:20:09.142Z,13.36
2017-04-25T05:21:09.103Z,13.26
2017-04-25T05:22:09.098Z,13.23
2017-04-25T05:23:09.101Z,13.23
2017-04-25T05:24:09.091Z,13.22
2017-04-25T05:25:09.083Z,13.28
2017-04-25T05:26:09.085Z,13.2
2017-04-25T05:27:09.072Z,13.22
2017-04-25T05:28:09.067Z,13.28
2017-04-25T05:29:09.062Z,13.19
2017-04-25T05:30:09.056Z,13.26
2017-04-25T05:31:09.051Z,13.22
2017-04-25T05:32:09.048Z,13.14
2017-04-25T05:33:09.040Z,13.12
2017-04-25T05:34:09.035Z,13.15
2017-04-25T05:35:09.028Z,13.2
2017-04-25T05:36:08.718Z,13.15
2017-04-25T05:37:09.016Z,13.12
2017-04-25T05:38:09.012Z,13.07
2017-04-25T05:39:09.007Z,13.05
2017-04-25T05:40:08.697Z,12.95
2017-04-25T05:41:08.997Z,12.97
2017-04-25T05:42:08.990Z,12.92
2017-04-25T05:43:08.983Z,13.01
2017-04-25T05:44:08.984Z,12.97
2017-04-25T05:45:08.666Z,12.95
2017-04-25T05:46:08.965Z,12.96
2017-04-25T05:47:08.960Z,12.9
2017-04-25T05:48:08.956Z,12.77
2017-04-25T05:49:08.947Z,12.77
2017-04-25T05:50:08.639Z,12.64
2017-04-25T05:51:08.936Z,12.67
2017-04-25T05:52:08.932Z,12.68
2017-04-25T05:53:08.924Z,12.65
2017-04-25T05:54:08.927Z,12.64
2017-04-25T05:55:08.607Z,12.59
2017-04-25T05:56:08.906Z,12.56
2017-04-25T05:57:08.903Z,12.54
2017-04-25T05:58:08.902Z,12.56
2017-04-25T05:59:08.888Z,12.56
2017-04-25T06:00:08.578Z,12.6
2017-04-25T06:01:08.873Z,12.64
2017-04-25T06:02:08.871Z,12.68
2017-04-25T06:03:08.559Z,12.67
2017-04-25T06:04:08.806Z,12.67
2017-04-25T06:05:08.850Z,12.64
2017-04-25T06:06:08.844Z,12.67
2017-04-25T06:07:08.838Z,12.7
2017-04-25T06:08:08.529Z,12.74
2017-04-25T06:09:09.129Z,12.85
2017-04-25T06:10:08.517Z,12.79
2017-04-25T06:11:08.813Z,12.85
2017-04-25T06:12:08.505Z,12.83
2017-04-25T06:13:08.803Z,12.95
2017-04-25T06:14:09.049Z,12.82
2017-04-25T06:15:08.787Z,12.89
2017-04-25T06:16:08.485Z,12.87
2017-04-25T06:17:08.779Z,12.95
2017-04-25T06:18:08.775Z,13.04
2017-04-25T06:19:09.065Z,13.12
2017-04-25T06:20:08.768Z,13.22
2017-04-25T06:21:08.756Z,13.28
2017-04-25T06:22:08.748Z,13.3
2017-04-25T06:23:08.746Z,13.36
2017-04-25T06:24:08.987Z,13.52
2017-04-25T06:25:08.732Z,13.63
2017-04-25T06:26:08.724Z,13.64
2017-04-25T06:27:08.418Z,13.73
2017-04-25T06:28:08.720Z,13.82
2017-04-25T06:29:09.011Z,14.04
2017-04-25T06:30:08.704Z,14.18
2017-04-25T06:31:08.706Z,14.27
2017-04-25T06:32:08.390Z,14.27
2017-04-25T06:33:08.690Z,14.42
2017-04-25T06:34:08.937Z,14.52
2017-04-25T06:35:08.679Z,14.64
2017-04-25T06:36:08.677Z,14.75
2017-04-25T06:37:08.675Z,14.72
2017-04-25T06:38:08.666Z,14.73
2017-04-25T06:39:08.917Z,14.65
2017-04-25T06:40:08.353Z,14.7
2017-04-25T06:41:08.659Z,14.86
2017-04-25T06:42:08.651Z,15.06
2017-04-25T06:43:08.644Z,15.17
2017-04-25T06:44:08.939Z,15.36
2017-04-25T06:45:08.649Z,15.51
2017-04-25T06:46:08.637Z,15.83
2017-04-25T06:47:08.635Z,16.08
2017-04-25T06:48:08.325Z,16.35
2017-04-25T06:49:08.879Z,16.73
2017-04-25T06:50:08.622Z,17.01
2017-04-25T06:51:08.629Z,17.37
2017-04-25T06:52:08.618Z,17.77
2017-04-25T06:53:08.619Z,18.08
2017-04-25T06:54:08.920Z,18.3
2017-04-25T06:55:08.620Z,18.47
2017-04-25T06:56:08.614Z,18.8
2017-04-25T06:57:08.314Z,19.1
2017-04-25T06:58:08.614Z,19.51
2017-04-25T06:59:08.566Z,19.71
2017-04-25T07:00:08.616Z,20.05
2017-04-25T07:01:08.617Z,20.38
2017-04-25T07:02:08.621Z,20.84
2017-04-25T07:03:08.623Z,21.14
2017-04-25T07:04:08.875Z,21.35
2017-04-25T07:05:08.626Z,21.69
2017-04-25T07:06:08.626Z,21.92
2017-04-25T07:07:08.026Z,21.99
2017-04-25T07:08:08.641Z,22.18
2017-04-25T07:09:08.937Z,22.21
2017-04-25T07:10:08.643Z,22.21
2017-04-25T07:11:08.645Z,22.2
2017-04-25T07:12:08.348Z,22.09
2017-04-25T07:13:08.662Z,22.03
2017-04-25T07:14:08.906Z,21.9
2017-04-25T07:15:08.357Z,21.77
2017-04-25T07:16:08.663Z,21.68
2017-04-25T07:17:08.364Z,21.64
2017-04-25T07:18:08.370Z,21.52
2017-04-25T07:19:08.924Z,21.56
2017-04-25T07:20:08.375Z,21.5
2017-04-25T07:21:08.683Z,21.35
2017-04-25T07:22:08.079Z,21.25
2017-04-25T07:23:08.688Z,21.17
2017-04-25T07:24:08.949Z,21.16
2017-04-25T07:25:08.698Z,21.14
2017-04-25T07:26:08.697Z,21.22
2017-04-25T07:27:08.705Z,21.32
2017-04-25T07:28:08.708Z,21.37
2017-04-25T07:29:08.958Z,21.46
2017-04-25T07:30:08.740Z,21.52
2017-04-25T07:31:08.712Z,21.49
2017-04-25T07:32:08.718Z,21.67
2017-04-25T07:33:08.717Z,21.71
2017-04-25T07:34:08.999Z,21.67
2017-04-25T07:35:08.723Z,21.72
2017-04-25T07:36:08.754Z,21.68
2017-04-25T07:37:08.731Z,21.56
2017-04-25T07:38:08.732Z,21.43
2017-04-25T07:39:08.733Z,21.37
2017-04-25T07:40:08.744Z,21.21
2017-04-25T07:41:08.741Z,21.17
2017-04-25T07:42:08.738Z,20.87
2017-04-25T07:43:08.745Z,20.64
2017-04-25T07:44:08.995Z,20.29
2017-04-25T07:45:08.743Z,20.03
2017-04-25T07:46:08.781Z,19.83
2017-04-25T07:47:08.745Z,19.47
2017-04-25T07:48:08.751Z,19.06
2017-04-25T07:49:09.045Z,18.76
2017-04-25T07:50:08.756Z,18.41
2017-04-25T07:51:08.746Z,18.05
2017-04-25T07:52:08.749Z,17.79
2017-04-25T07:53:08.745Z,17.58
2017-04-25T07:54:08.895Z,17.33
2017-04-25T07:55:08.746Z,17.16
2017-04-25T07:56:08.436Z,16.94
2017-04-25T07:57:08.769Z,16.7
2017-04-25T07:58:08.736Z,16.56
2017-04-25T07:59:09.007Z,16.34
2017-04-25T08:00:08.736Z,15.97
2017-04-25T08:01:09.843Z,15.96
2017-04-25T08:02:08.731Z,15.83
2017-04-25T08:03:08.725Z,15.78
2017-04-25T08:04:09.022Z,15.59
2017-04-25T08:05:08.717Z,15.5
2017-04-25T08:06:08.719Z,15.47
2017-04-25T08:07:08.719Z,15.34
2017-04-25T08:08:08.715Z,15.34
2017-04-25T08:09:09.008Z,15.14
2017-04-25T08:10:08.705Z,14.95
2017-04-25T08:11:08.698Z,14.83
2017-04-25T08:12:08.389Z,14.77
2017-04-25T08:13:08.694Z,14.61
2017-04-25T08:14:08.944Z,14.54
2017-04-25T08:15:08.688Z,14.36
2017-04-25T08:16:08.679Z,14.2
2017-04-25T08:17:08.674Z,14.03
2017-04-25T08:18:08.675Z,13.84
2017-04-25T08:19:08.915Z,13.69
2017-04-25T08:20:08.359Z,13.52
2017-04-25T08:21:08.357Z,13.42
2017-04-25T08:22:08.349Z,13.28
2017-04-25T08:23:08.650Z,13.25
2017-04-25T08:24:08.892Z,13.17
2017-04-25T08:25:08.639Z,13.12
2017-04-25T08:26:08.633Z,13.01
2017-04-25T08:27:08.628Z,12.97
2017-04-25T08:28:08.625Z,12.92
2017-04-25T08:29:08.931Z,12.85
2017-04-25T08:30:08.612Z,12.87
2017-04-25T08:31:08.607Z,12.89
2017-04-25T08:32:08.602Z,12.83
2017-04-25T08:33:08.597Z,12.89
2017-04-25T08:34:08.891Z,12.93
2017-04-25T08:35:08.584Z,13
2017-04-25T08:36:07.976Z,12.97
2017-04-25T08:37:08.574Z,13.04
2017-04-25T08:38:08.567Z,13.11
2017-04-25T08:39:08.812Z,13.17
2017-04-25T08:40:08.255Z,13.15
2017-04-25T08:41:08.553Z,13.2
2017-04-25T08:42:08.544Z,13.23
2017-04-25T08:43:08.238Z,13.19
2017-04-25T08:44:08.895Z,13.15
2017-04-25T08:45:08.530Z,13.05
2017-04-25T08:46:08.528Z,13
2017-04-25T08:47:08.516Z,13.01
2017-04-25T08:48:08.547Z,13.01
2017-04-25T08:49:08.812Z,13.03
2017-04-25T08:50:08.501Z,12.97
2017-04-25T08:51:08.496Z,12.85
2017-04-25T08:52:08.494Z,12.86
2017-04-25T08:53:08.186Z,12.77
2017-04-25T08:54:08.785Z,12.72
2017-04-25T08:55:08.475Z,12.64
2017-04-25T08:56:08.468Z,12.65
2017-04-25T08:57:08.463Z,12.62
2017-04-25T08:58:08.153Z,12.49
2017-04-25T08:59:08.756Z,12.46
2017-04-25T09:00:08.447Z,12.41
2017-04-25T09:01:08.442Z,12.37
2017-04-25T09:02:08.433Z,12.35
2017-04-25T09:03:08.430Z,12.17
2017-04-25T09:04:08.676Z,12.1
2017-04-25T09:05:08.414Z,12.09
2017-04-25T09:06:08.412Z,12.02
2017-04-25T09:07:08.401Z,12.04
2017-04-25T09:08:08.397Z,11.99
2017-04-25T09:09:08.642Z,11.99
2017-04-25T09:10:08.389Z,11.98
2017-04-25T09:11:08.379Z,11.96
2017-04-25T09:12:08.372Z,11.95
2017-04-25T09:13:08.062Z,11.88
2017-04-25T09:14:08.661Z,11.79
2017-04-25T09:15:08.051Z,11.7
2017-04-25T09:16:08.346Z,11.67
2017-04-25T09:17:08.039Z,11.58
2017-04-25T09:18:08.338Z,11.57
2017-04-25T09:19:08.631Z,11.61
2017-04-25T09:20:08.321Z,11.7
2017-04-25T09:21:08.317Z,11.78
2017-04-25T09:22:08.011Z,11.7
2017-04-25T09:23:08.303Z,11.76
2017-04-25T09:24:08.600Z,11.75
2017-04-25T09:25:07.985Z,11.76
2017-04-25T09:26:08.284Z,11.76
2017-04-25T09:27:08.276Z,11.83
2017-04-25T09:28:08.271Z,11.76
2017-04-25T09:29:08.515Z,11.86
2017-04-25T09:30:07.649Z,11.88
2017-04-25T09:31:08.252Z,11.9
2017-04-25T09:32:08.242Z,11.88
2017-04-25T09:33:08.237Z,11.88
2017-04-25T09:34:08.537Z,11.82
2017-04-25T09:35:08.222Z,11.83
2017-04-25T09:36:08.221Z,11.88
2017-04-25T09:37:08.213Z,11.9
2017-04-25T09:38:08.209Z,11.85
2017-04-25T09:39:08.506Z,11.85
2017-04-25T09:40:08.192Z,11.78
2017-04-25T09:41:08.185Z,11.76
2017-04-25T09:42:08.182Z,11.86
2017-04-25T09:43:08.169Z,11.82
2017-04-25T09:44:08.419Z,11.88
2017-04-25T09:45:08.158Z,11.91
2017-04-25T09:46:07.850Z,11.91
2017-04-25T09:47:08.148Z,11.98
2017-04-25T09:48:08.142Z,11.98
2017-04-25T09:49:08.386Z,11.98
2017-04-25T09:50:08.126Z,12.09
2017-04-25T09:51:08.120Z,12.02
2017-04-25T09:52:08.116Z,12.14
2017-04-25T09:53:07.805Z,12.2
2017-04-25T09:54:08.107Z,12.28
2017-04-25T09:55:08.102Z,12.35
2017-04-25T09:56:08.088Z,12.41
2017-04-25T09:57:08.085Z,12.5
2017-04-25T09:58:08.077Z,12.49
2017-04-25T09:59:07.797Z,12.54
2017-04-25T10:00:08.065Z,12.59
2017-04-25T10:01:08.060Z,12.57
2017-04-25T10:02:08.062Z,12.59
2017-04-25T10:03:08.051Z,12.7
2017-04-25T10:04:08.049Z,12.7
2017-04-25T10:05:07.733Z,12.89
2017-04-25T10:06:08.029Z,12.95
2017-04-25T10:07:08.024Z,13.01
2017-04-25T10:08:07.714Z,13
2017-04-25T10:09:08.014Z,13.03
2017-04-25T10:10:08.007Z,13.11
2017-04-25T10:11:08.003Z,13.1
2017-04-25T10:12:07.997Z,13.2
2017-04-25T10:13:07.993Z,13.38
2017-04-25T10:14:07.983Z,13.55
2017-04-25T10:15:07.976Z,13.67
2017-04-25T10:16:07.972Z,13.88
2017-04-25T10:17:07.967Z,14.09
2017-04-25T10:18:07.963Z,14.24
2017-04-25T10:19:07.958Z,14.36
2017-04-25T10:20:07.954Z,14.45
2017-04-25T10:21:07.946Z,14.51
2017-04-25T10:22:07.941Z,14.54
2017-04-25T10:23:07.936Z,14.58
2017-04-25T10:24:07.936Z,14.84
2017-04-25T10:25:07.928Z,15.01
2017-04-25T10:26:07.622Z,15.19
2017-04-25T10:27:07.615Z,15.46
2017-04-25T10:28:07.916Z,15.41
2017-04-25T10:29:07.910Z,15.54
2017-04-25T10:30:07.912Z,15.49
2017-04-25T10:31:07.903Z,15.53
2017-04-25T10:32:07.904Z,15.59
2017-04-25T10:33:07.594Z,15.54
2017-04-25T10:34:07.894Z,15.62
2017-04-25T10:35:07.585Z,15.6
2017-04-25T10:36:07.885Z,15.59
2017-04-25T10:37:07.883Z,15.54
2017-04-25T10:38:07.877Z,15.6
2017-04-25T10:39:07.884Z,15.62
2017-04-25T10:40:07.869Z,15.71
2017-04-25T10:41:07.865Z,15.65
2017-04-25T10:42:07.862Z,15.62
2017-04-25T10:43:07.859Z,15.57
2017-04-25T10:44:07.856Z,15.53
2017-04-25T10:45:07.802Z,15.59
2017-04-25T10:46:07.848Z,15.71
2017-04-25T10:47:07.848Z,15.59
2017-04-25T10:48:07.838Z,15.6
2017-04-25T10:49:07.849Z,15.6
2017-04-25T10:50:07.531Z,15.51
2017-04-25T10:51:07.832Z,15.59
2017-04-25T10:52:07.529Z,15.71
2017-04-25T10:53:07.826Z,15.83
2017-04-25T10:54:07.835Z,15.96
2017-04-25T10:55:08.119Z,16.14
2017-04-25T10:56:07.512Z,16.23
2017-04-25T10:57:07.818Z,16.34
2017-04-25T10:58:07.810Z,16.43
2017-04-25T10:59:07.812Z,16.58
2017-04-25T11:00:08.052Z,16.7
2017-04-25T11:01:07.801Z,16.81
2017-04-25T11:02:07.798Z,16.94
2017-04-25T11:03:07.801Z,17.08
2017-04-25T11:04:07.794Z,17.04
2017-04-25T11:05:08.092Z,17.18
2017-04-25T11:06:07.789Z,17.19
2017-04-25T11:07:07.481Z,17.3
2017-04-25T11:08:07.483Z,17.38
2017-04-25T11:09:07.789Z,17.38
2017-04-25T11:10:08.027Z,17.4
2017-04-25T11:11:07.778Z,17.41
2017-04-25T11:12:07.472Z,17.4
2017-04-25T11:13:07.770Z,17.41
2017-04-25T11:14:07.464Z,17.22
2017-04-25T11:15:08.096Z,17.18
2017-04-25T11:16:07.463Z,17.04
2017-04-25T11:17:07.760Z,16.81
2017-04-25T11:18:07.765Z,16.76
2017-04-25T11:19:07.761Z,16.76
2017-04-25T11:20:07.752Z,16.79
2017-04-25T11:21:07.451Z,16.81
2017-04-25T11:22:07.758Z,16.88
2017-04-25T11:23:07.750Z,16.89
2017-04-25T11:24:07.445Z,16.98
2017-04-25T11:25:07.690Z,17.04
2017-04-25T11:26:07.756Z,17.16
2017-04-25T11:27:07.747Z,17.28
2017-04-25T11:28:07.740Z,17.38
2017-04-25T11:29:07.738Z,17.46
2017-04-25T11:30:08.083Z,17.68
2017-04-25T11:31:07.739Z,17.87
2017-04-25T11:32:07.732Z,17.86
2017-04-25T11:33:07.128Z,17.9
2017-04-25T11:34:07.424Z,17.93
2017-04-25T11:35:08.025Z,18.03
2017-04-25T11:36:07.420Z,17.99
2017-04-25T11:37:07.721Z,18.1
2017-04-25T11:38:07.415Z,18.18
2017-04-25T11:39:07.415Z,18.11
2017-04-25T11:40:07.661Z,18.2
2017-04-25T11:41:07.717Z,18.29
2017-04-25T11:42:07.410Z,18.29
2017-04-25T11:43:07.411Z,18.21
2017-04-25T11:44:07.715Z,18.07
2017-04-25T11:45:07.655Z,18.17
2017-04-25T11:46:07.407Z,18
2017-04-25T11:47:07.404Z,17.86
2017-04-25T11:48:07.400Z,17.7
2017-04-25T11:49:07.403Z,17.49
2017-04-25T11:50:07.947Z,17.38
2017-04-25T11:51:07.700Z,17.36
2017-04-25T11:52:07.395Z,17.16
2017-04-25T11:53:07.395Z,17.03
2017-04-25T11:54:07.708Z,16.86
2017-04-25T11:55:07.996Z,16.73
2017-04-25T11:56:07.694Z,16.6
2017-04-25T11:57:07.691Z,16.42
2017-04-25T11:58:07.687Z,16.2
2017-04-25T11:59:07.688Z,16.09
2017-04-25T12:00:07.931Z,16.04
2017-04-25T12:01:07.679Z,15.87
2017-04-25T12:02:07.673Z,15.92
2017-04-25T12:03:07.674Z,15.86
2017-04-25T12:04:07.672Z,15.78
2017-04-25T12:05:07.061Z,15.68
2017-04-25T12:06:07.665Z,15.64
2017-04-25T12:07:07.356Z,15.6
2017-04-25T12:08:07.661Z,15.53
2017-04-25T12:09:07.653Z,15.57
2017-04-25T12:10:07.653Z,15.47
2017-04-25T12:11:07.646Z,15.38
2017-04-25T12:12:07.649Z,15.27
2017-04-25T12:13:07.646Z,15.14
2017-04-25T12:14:07.336Z,14.89
2017-04-25T12:15:07.635Z,14.75
2017-04-25T12:16:07.628Z,14.58
2017-04-25T12:17:07.633Z,14.58
2017-04-25T12:18:07.319Z,14.37
2017-04-25T12:19:07.617Z,14.28
2017-04-25T12:20:07.623Z,14.25
2017-04-25T12:21:07.609Z,14.18
2017-04-25T12:22:07.306Z,14.2
2017-04-25T12:23:07.603Z,14.22
2017-04-25T12:24:07.601Z,14.15
2017-04-25T12:25:07.597Z,14.15
2017-04-25T12:26:07.282Z,14
2017-04-25T12:27:07.587Z,13.87
2017-04-25T12:28:07.578Z,13.88
2017-04-25T12:29:07.575Z,13.78
2017-04-25T12:30:07.570Z,13.69
2017-04-25T12:31:07.815Z,13.64
2017-04-25T12:32:07.263Z,13.59
2017-04-25T12:33:07.564Z,13.6
2017-04-25T12:34:07.247Z,13.55
2017-04-25T12:35:07.254Z,13.48
2017-04-25T12:36:07.586Z,13.52
2017-04-25T12:37:07.534Z,13.44
2017-04-25T12:38:07.528Z,13.36
2017-04-25T12:39:07.546Z,13.36
2017-04-25T12:40:07.219Z,13.36
2017-04-25T12:41:07.814Z,13.28
2017-04-25T12:42:07.210Z,13.32
2017-04-25T12:43:07.506Z,13.26
2017-04-25T12:44:07.503Z,13.28
2017-04-25T12:45:07.497Z,13.41
2017-04-25T12:46:07.439Z,13.44
2017-04-25T12:47:07.487Z,13.54
2017-04-25T12:48:07.679Z,13.6
2017-04-25T12:49:07.474Z,13.81
2017-04-25T12:50:07.466Z,13.84
2017-04-25T12:51:07.763Z,13.89
2017-04-25T12:52:07.151Z,14.03
2017-04-25T12:53:07.458Z,14.12
2017-04-25T12:54:07.447Z,14.17
2017-04-25T12:55:07.137Z,14.28
2017-04-25T12:56:07.734Z,14.25
2017-04-25T12:57:07.431Z,14.37
2017-04-25T12:58:07.425Z,14.57
2017-04-25T12:59:07.420Z,14.54
2017-04-25T13:00:07.118Z,14.78
2017-04-25T13:01:07.410Z,14.92
2017-04-25T13:02:07.406Z,15.13
2017-04-25T13:03:07.404Z,15.25
2017-04-25T13:04:07.096Z,15.39